Metar Aeropuerto Ibiza
Pocas Nubes
Pocas Nubes
STATION : LEIB
METAR : 2019/01/16 20:30 LEIB 162030Z 20007KT 9999 FEW023 13/08 Q1017 NOSIG
WINDMPH : SSW at 8 mph
WIND : SSW at 8 mph (13 km/h)
VISIBILITY : 6 miles (10 km)
CONDITIONS :
CLOUDS : Few Clouds
CLOUD-DETAILS : Few Clouds 2300 ft
TEMP : 55°F (13°C)
DEWPT : 46°F (8°C)
HUMIDITY : 72%
BAROMETER : 30.03 inHg (1017 hPa)
RAW-METAR : 2019/01/16 20:30 LEIB 162030Z 20007KT 9999 FEW023 13/08 Q1017 NOSIG
 Publicidad